createdAt,value
2022-08-05T00:00:17.324Z,97445.59
2022-08-05T00:02:50.742Z,97437.56
2022-08-05T00:06:02.475Z,97448.16
2022-08-05T00:08:32.956Z,97438.34
2022-08-05T00:11:00.611Z,97439.53
2022-08-05T00:13:38.251Z,97439.03
2022-08-05T00:16:12.270Z,97434.66
2022-08-05T00:18:42.182Z,97442.91
2022-08-05T00:21:10.589Z,97470.97
2022-08-05T00:23:46.165Z,97431.75
2022-08-05T00:26:16.429Z,97434.91
2022-08-05T00:28:45.708Z,97430.38
2022-08-05T00:31:15.495Z,97429.81
2022-08-05T00:34:54.615Z,97431.88
2022-08-05T00:37:11.022Z,97426.66
2022-08-05T00:39:19.778Z,97425.00
2022-08-05T00:41:55.061Z,97426.97
2022-08-05T00:44:30.989Z,97418.97
2022-08-05T00:47:02.150Z,97423.81
2022-08-05T00:49:32.409Z,97431.03
2022-08-05T00:52:00.964Z,97419.22
2022-08-05T00:54:30.186Z,97421.88
2022-08-05T00:56:58.359Z,97417.50
2022-08-05T00:59:26.357Z,97418.72
2022-08-05T01:02:04.192Z,97413.63
2022-08-05T01:04:32.232Z,97422.88
2022-08-05T01:07:00.184Z,97418.38
2022-08-05T01:09:33.124Z,97413.63
2022-08-05T01:12:18.189Z,97416.44
2022-08-05T01:14:50.059Z,97414.13
2022-08-05T01:17:22.867Z,97412.19
2022-08-05T01:20:02.215Z,97406.81
2022-08-05T01:22:39.528Z,97415.97
2022-08-05T01:25:18.693Z,97414.03
2022-08-05T01:28:07.234Z,97416.00
2022-08-05T01:30:39.383Z,97416.84
2022-08-05T01:33:09.296Z,97409.44
2022-08-05T01:35:51.697Z,97409.66
2022-08-05T01:38:26.770Z,97406.41
2022-08-05T01:40:56.794Z,97408.59
2022-08-05T01:43:27.862Z,97403.75
2022-08-05T01:45:57.186Z,97401.22
2022-08-05T01:48:26.341Z,97406.03
2022-08-05T01:50:56.699Z,97405.91
2022-08-05T01:53:54.538Z,97407.50
2022-08-05T01:58:10.981Z,97395.34
2022-08-05T01:59:05.849Z,97400.34
2022-08-05T02:01:39.718Z,97398.75
2022-08-05T02:04:10.350Z,97398.88
2022-08-05T02:06:39.232Z,97398.75
2022-08-05T02:09:08.223Z,97396.06
2022-08-05T02:11:42.098Z,97388.41
2022-08-05T02:14:13.409Z,97392.97
2022-08-05T02:16:46.021Z,97391.84
2022-08-05T02:19:27.315Z,97391.38
2022-08-05T02:21:59.690Z,97386.63
2022-08-05T02:24:29.550Z,97379.97
2022-08-05T02:26:59.617Z,97384.97
2022-08-05T02:29:59.408Z,97383.50
2022-08-05T02:32:29.197Z,97382.16
2022-08-05T02:35:01.935Z,97380.72
2022-08-05T02:37:32.405Z,97372.72
2022-08-05T02:40:02.130Z,97376.59
2022-08-05T02:42:35.998Z,97379.00
2022-08-05T02:45:06.882Z,97374.16
2022-08-05T02:48:07.495Z,97368.81
2022-08-05T02:50:25.589Z,97376.59
2022-08-05T02:52:54.404Z,97378.78
2022-08-05T02:55:52.089Z,97364.44
2022-08-05T02:58:14.407Z,97371.38
2022-08-05T03:00:46.069Z,97370.53
2022-08-05T03:03:16.312Z,97372.22
2022-08-05T03:06:56.733Z,97380.59
2022-08-05T03:08:33.822Z,97378.75
2022-08-05T03:11:55.786Z,97373.31
2022-08-05T03:13:51.853Z,97373.53
2022-08-05T03:16:31.923Z,97378.03
2022-08-05T03:19:00.398Z,97372.47
2022-08-05T03:21:29.016Z,97377.56
2022-08-05T03:24:02.438Z,97370.16
2022-08-05T03:26:32.427Z,97370.47
2022-08-05T03:29:01.017Z,97368.16
2022-08-05T03:31:57.207Z,97373.81
2022-08-05T03:34:19.374Z,97365.78
2022-08-05T03:36:52.422Z,97363.91
2022-08-05T03:39:27.300Z,97362.56
2022-08-05T03:41:59.363Z,97365.34
2022-08-05T03:44:30.031Z,97370.47
2022-08-05T03:47:03.520Z,97369.25
2022-08-05T03:49:51.507Z,97366.34
2022-08-05T03:52:37.444Z,97364.53
2022-08-05T03:56:04.393Z,97366.56
2022-08-05T03:58:02.239Z,97370.09
2022-08-05T04:00:32.449Z,97367.91
2022-08-05T04:03:02.987Z,97371.91
2022-08-05T04:05:35.370Z,97368.66
2022-08-05T04:08:05.773Z,97359.53
2022-08-05T04:10:43.081Z,97365.38
2022-08-05T04:13:11.097Z,97363.56
2022-08-05T04:15:39.088Z,97366.28
2022-08-05T04:18:27.172Z,97367.09
2022-08-05T04:20:57.219Z,97363.22
2022-08-05T04:24:05.221Z,97365.78
2022-08-05T04:26:14.676Z,97364.31
2022-08-05T04:28:51.264Z,97367.94
2022-08-05T04:31:20.538Z,97367.81
2022-08-05T04:34:18.828Z,97367.78
2022-08-05T04:36:45.437Z,97367.66
2022-08-05T04:39:18.150Z,97364.34
2022-08-05T04:41:46.215Z,97362.91
2022-08-05T04:44:21.407Z,97361.53
2022-08-05T04:46:58.440Z,97367.88
2022-08-05T04:49:39.260Z,97364.50
2022-08-05T04:52:16.103Z,97360.16
2022-08-05T04:54:44.062Z,97359.38
2022-08-05T04:57:11.972Z,97362.06
2022-08-05T04:59:40.539Z,97359.19
2022-08-05T05:02:37.346Z,97359.50
2022-08-05T05:05:03.044Z,97359.81
2022-08-05T05:07:35.594Z,97367.09
2022-08-05T05:10:06.363Z,97369.22
2022-08-05T05:12:34.544Z,97370.78
2022-08-05T05:15:05.232Z,97374.84
2022-08-05T05:17:55.901Z,97370.13
2022-08-05T05:20:28.633Z,97369.59
2022-08-05T05:22:58.902Z,97368.75
2022-08-05T05:25:32.994Z,97367.75
2022-08-05T05:28:08.732Z,97364.41
2022-08-05T05:30:37.427Z,97371.19
2022-08-05T05:33:16.255Z,97365.16
2022-08-05T05:35:47.395Z,97359.66
2022-08-05T05:38:22.743Z,97365.75
2022-08-05T05:40:55.539Z,97358.81
2022-08-05T05:43:56.402Z,97356.78
2022-08-05T05:46:16.027Z,97367.09
2022-08-05T05:48:47.885Z,97360.31
2022-08-05T05:51:20.602Z,97356.34
2022-08-05T05:53:57.843Z,97359.47
2022-08-05T05:56:32.562Z,97351.53
2022-08-05T05:59:03.307Z,97350.69
2022-08-05T06:01:38.197Z,97346.47
2022-08-05T06:04:07.672Z,97355.06
2022-08-05T06:06:35.859Z,97349.25
2022-08-05T06:09:05.734Z,97355.72
2022-08-05T06:11:39.346Z,97351.13
2022-08-05T06:14:07.569Z,97345.41
2022-08-05T06:16:37.320Z,97349.91
2022-08-05T06:19:07.846Z,97351.50
2022-08-05T06:21:38.305Z,97348.63
2022-08-05T06:24:12.057Z,97353.00
2022-08-05T06:26:51.113Z,97345.59
2022-08-05T06:29:25.104Z,97320.97
2022-08-05T06:32:26.357Z,97346.63
2022-08-05T06:34:58.778Z,97351.41
2022-08-05T06:37:52.276Z,97348.56
2022-08-05T06:40:21.145Z,97345.97
2022-08-05T06:42:52.117Z,97350.31
2022-08-05T06:46:03.369Z,97338.44
2022-08-05T06:48:36.175Z,97341.19
2022-08-05T06:51:00.238Z,97345.81
2022-08-05T06:53:29.395Z,97343.50
2022-08-05T06:56:00.594Z,97344.66
2022-08-05T06:58:34.974Z,97344.72
2022-08-05T07:01:06.947Z,97343.56
2022-08-05T07:03:36.005Z,97344.66
2022-08-05T07:06:10.372Z,97345.81
2022-08-05T07:08:47.167Z,97328.16
2022-08-05T07:11:22.208Z,97344.03
2022-08-05T07:14:20.541Z,97342.81
2022-08-05T07:18:00.162Z,97339.66
2022-08-05T07:22:39.595Z,97341.25
2022-08-05T07:25:54.219Z,97338.53
2022-08-05T07:28:07.266Z,97351.38
2022-08-05T07:30:40.140Z,97330.31
2022-08-05T07:33:15.704Z,97327.00
2022-08-05T07:36:01.558Z,97317.41
2022-08-05T07:38:43.747Z,97300.88
2022-08-05T07:42:13.955Z,97327.06
2022-08-05T07:44:19.315Z,97319.81
2022-08-05T07:46:49.521Z,97321.38
2022-08-05T07:49:18.645Z,97319.00
2022-08-05T07:51:54.539Z,97327.09
2022-08-05T07:54:31.430Z,97330.66
2022-08-05T07:57:17.834Z,97313.44
2022-08-05T07:59:52.541Z,97325.06
2022-08-05T08:02:26.539Z,97327.56
2022-08-05T08:04:59.271Z,97323.00
2022-08-05T08:07:28.397Z,97321.81
2022-08-05T08:09:57.010Z,97320.16
2022-08-05T08:12:35.236Z,97320.84
2022-08-05T08:15:15.093Z,97294.50
2022-08-05T08:17:50.617Z,97284.22
2022-08-05T08:21:00.144Z,97327.91
2022-08-05T08:23:11.648Z,97311.84
2022-08-05T08:26:04.685Z,97257.34
2022-08-05T08:28:36.831Z,97304.31
2022-08-05T08:31:14.602Z,97319.53
2022-08-05T08:33:46.904Z,97320.34
2022-08-05T08:36:37.449Z,97300.97
2022-08-05T08:39:15.605Z,97315.44
2022-08-05T08:41:52.459Z,97314.38
2022-08-05T08:45:23.841Z,97308.28
2022-08-05T08:48:06.404Z,97306.91
2022-08-05T08:50:30.746Z,97310.25
2022-08-05T08:53:11.844Z,97312.91
2022-08-05T08:56:03.512Z,97306.25
2022-08-05T08:58:37.458Z,97286.81
2022-08-05T09:01:17.431Z,97305.06
2022-08-05T09:03:54.294Z,97308.19
2022-08-05T09:06:29.727Z,97303.75
2022-08-05T09:09:00.287Z,97283.47
2022-08-05T09:11:51.341Z,97298.03
2022-08-05T09:14:58.376Z,97296.28
2022-08-05T09:17:08.223Z,97293.69
2022-08-05T09:20:01.944Z,97300.69
2022-08-05T09:22:32.030Z,97298.28
2022-08-05T09:25:13.986Z,97296.38
2022-08-05T09:28:04.450Z,97281.28
2022-08-05T09:30:34.878Z,97279.91
2022-08-05T09:33:04.754Z,97239.59
2022-08-05T09:35:34.578Z,97286.16
2022-08-05T09:38:12.689Z,97266.22
2022-08-05T09:40:52.651Z,97282.31
2022-08-05T09:43:42.191Z,97270.00
2022-08-05T09:46:28.471Z,97272.63
2022-08-05T09:49:07.557Z,97277.00
2022-08-05T09:51:49.752Z,97267.56
2022-08-05T09:54:21.390Z,97216.88
2022-08-05T09:57:01.741Z,97171.63
2022-08-05T09:59:35.005Z,97270.19
2022-08-05T10:02:06.221Z,97269.84
2022-08-05T10:04:41.151Z,97269.34
2022-08-05T10:07:20.064Z,97264.28
2022-08-05T10:10:14.362Z,97218.84
2022-08-05T10:12:49.317Z,97226.97
2022-08-05T10:15:21.785Z,97265.13
2022-08-05T10:18:08.916Z,97264.56
2022-08-05T10:20:39.814Z,97261.56
2022-08-05T10:23:34.104Z,97251.91
2022-08-05T10:26:03.224Z,97244.41
2022-08-05T10:28:36.831Z,97237.59
2022-08-05T10:32:55.077Z,97234.13
2022-08-05T10:33:54.415Z,97246.16
2022-08-05T10:36:23.674Z,97228.47
2022-08-05T10:39:10.006Z,97238.06
2022-08-05T10:41:47.376Z,97135.69
2022-08-05T10:44:20.479Z,97241.97
2022-08-05T10:46:54.391Z,97233.19
2022-08-05T10:49:26.718Z,97182.59
2022-08-05T10:52:00.336Z,97232.88
2022-08-05T10:54:56.067Z,97238.78
2022-08-05T10:57:32.126Z,97176.38
2022-08-05T11:00:20.193Z,97228.31
2022-08-05T11:03:25.434Z,97236.00
2022-08-05T11:06:14.572Z,97217.59
2022-08-05T11:09:16.572Z,97232.25
2022-08-05T11:11:52.650Z,97237.00
2022-08-05T11:14:49.398Z,97224.03
2022-08-05T11:18:07.474Z,97230.59
2022-08-05T11:20:44.524Z,97229.63
2022-08-05T11:24:03.050Z,97223.69
2022-08-05T11:26:28.886Z,97225.69
2022-08-05T11:29:12.146Z,97226.38
2022-08-05T11:31:54.089Z,97195.69
2022-08-05T11:34:51.143Z,97213.56
2022-08-05T11:38:28.680Z,97217.88
2022-08-05T11:41:13.844Z,97219.22
2022-08-05T11:44:04.404Z,97208.22
2022-08-05T11:46:58.647Z,97216.84
2022-08-05T11:49:27.259Z,97229.34
2022-08-05T11:51:57.538Z,97212.34
2022-08-05T11:54:33.954Z,97209.19
2022-08-05T11:57:08.711Z,97226.16
2022-08-05T11:59:53.222Z,97218.91
2022-08-05T12:02:31.701Z,97180.56
2022-08-05T12:05:08.238Z,97203.00
2022-08-05T12:08:03.797Z,97203.34
2022-08-05T12:10:45.400Z,97198.63
2022-08-05T12:13:18.848Z,97185.66
2022-08-05T12:16:04.553Z,97207.84
2022-08-05T12:18:48.669Z,97203.72
2022-08-05T12:21:23.936Z,97203.16
2022-08-05T12:24:00.067Z,97203.81
2022-08-05T12:26:32.837Z,97195.94
2022-08-05T12:29:03.213Z,97191.53
2022-08-05T12:31:40.704Z,97193.59
2022-08-05T12:34:20.437Z,97186.84
2022-08-05T12:36:52.286Z,97195.22
2022-08-05T12:39:21.034Z,97166.38
2022-08-05T12:41:49.740Z,97183.41
2022-08-05T12:44:33.871Z,97140.41
2022-08-05T12:47:03.646Z,97124.88
2022-08-05T12:50:03.089Z,97177.06
2022-08-05T12:52:39.208Z,97155.47
2022-08-05T12:55:22.305Z,97171.41
2022-08-05T12:58:49.716Z,97153.22
2022-08-05T13:01:59.857Z,97161.84
2022-08-05T13:03:33.460Z,97147.78
2022-08-05T13:06:04.493Z,97165.19
2022-08-05T13:08:33.030Z,97139.91
2022-08-05T13:11:02.444Z,97151.81
2022-08-05T13:14:05.547Z,97146.59
2022-08-05T13:16:25.223Z,97142.63
2022-08-05T13:18:58.903Z,97128.94
2022-08-05T13:21:38.153Z,97139.31
2022-08-05T13:24:27.779Z,97135.63
2022-08-05T13:27:06.410Z,97137.47
2022-08-05T13:29:39.421Z,97128.41
2022-08-05T13:32:33.049Z,97089.94
2022-08-05T13:35:03.779Z,97101.31
2022-08-05T13:37:35.130Z,97111.09
2022-08-05T13:40:14.030Z,97108.81
2022-08-05T13:42:45.819Z,97049.06
2022-08-05T13:45:14.101Z,97090.16
2022-08-05T13:48:08.844Z,97087.63
2022-08-05T13:50:37.824Z,97085.28
2022-08-05T13:53:09.034Z,97080.19
2022-08-05T13:55:50.243Z,97090.34
2022-08-05T13:58:30.859Z,97089.59
2022-08-05T14:00:59.821Z,97078.72
2022-08-05T14:03:28.950Z,97090.78
2022-08-05T14:06:25.766Z,97084.72
2022-08-05T14:08:46.193Z,97062.03
2022-08-05T14:11:20.269Z,97092.34
2022-08-05T14:13:49.590Z,97087.66
2022-08-05T14:16:23.860Z,97090.59
2022-08-05T14:18:52.220Z,97091.47
2022-08-05T14:22:07.010Z,97090.34
2022-08-05T14:24:12.421Z,97082.84
2022-08-05T14:27:02.054Z,97073.66
2022-08-05T14:29:31.412Z,97084.25
2022-08-05T14:32:12.221Z,97085.94
2022-08-05T14:34:43.226Z,97091.84
2022-08-05T14:37:13.277Z,97074.81
2022-08-05T14:39:49.288Z,97100.16
2022-08-05T14:42:21.023Z,97085.09
2022-08-05T14:44:49.791Z,97077.31
2022-08-05T14:47:23.965Z,97099.53
2022-08-05T14:50:17.434Z,97101.53
2022-08-05T14:52:58.433Z,97098.75
2022-08-05T14:55:39.900Z,97106.69
2022-08-05T14:58:12.440Z,97114.59
2022-08-05T15:00:59.497Z,97074.66
2022-08-05T15:03:33.325Z,97097.03
2022-08-05T15:06:13.004Z,97102.66
2022-08-05T15:09:01.309Z,97110.16
2022-08-05T15:11:53.135Z,97116.81
2022-08-05T15:14:35.794Z,97118.47
2022-08-05T15:17:44.873Z,97116.81
2022-08-05T15:19:58.871Z,97113.97
2022-08-05T15:22:28.464Z,97129.00
2022-08-05T15:24:59.392Z,97021.50
2022-08-05T15:27:32.149Z,97138.41
2022-08-05T15:30:05.599Z,97078.81
2022-08-05T15:32:34.768Z,97133.09
2022-08-05T15:35:10.826Z,97073.19
2022-08-05T15:38:32.951Z,97139.91
2022-08-05T15:40:58.874Z,97003.81
2022-08-05T15:43:27.111Z,97134.34
2022-08-05T15:46:02.461Z,97138.94
2022-08-05T15:48:32.374Z,97127.09
2022-08-05T15:51:05.909Z,97138.59
2022-08-05T15:53:38.453Z,97132.91
2022-08-05T15:56:18.411Z,97132.59
2022-08-05T15:58:48.925Z,97131.94
2022-08-05T16:01:20.006Z,97020.47
2022-08-05T16:03:50.434Z,97132.41
2022-08-05T16:06:22.766Z,97129.03
2022-08-05T16:08:55.374Z,97125.88
2022-08-05T16:11:40.128Z,97111.41
2022-08-05T16:14:17.170Z,97129.09
2022-08-05T16:16:47.476Z,97138.84
2022-08-05T16:19:25.606Z,97100.16
2022-08-05T16:22:05.349Z,97139.03
2022-08-05T16:24:41.532Z,97128.19
2022-08-05T16:27:19.527Z,97126.84
2022-08-05T16:30:23.297Z,97134.00
2022-08-05T16:32:55.921Z,97131.50
2022-08-05T16:35:27.957Z,97132.03
2022-08-05T16:38:15.777Z,97065.13
2022-08-05T16:40:51.814Z,97143.03
2022-08-05T16:43:24.450Z,97145.09
2022-08-05T16:46:05.057Z,97144.81
2022-08-05T16:48:39.083Z,97123.50
2022-08-05T16:51:09.120Z,97144.34
2022-08-05T16:54:05.897Z,97147.22
2022-08-05T16:56:29.529Z,97159.47
2022-08-05T16:58:58.872Z,97161.44
2022-08-05T17:01:31.788Z,97159.66
2022-08-05T17:04:19.014Z,97160.50
2022-08-05T17:06:53.028Z,97166.56
2022-08-05T17:09:21.510Z,97164.78
2022-08-05T17:11:55.973Z,97166.31
2022-08-05T17:14:36.732Z,97164.53
2022-08-05T17:17:09.328Z,97152.09
2022-08-05T17:19:46.285Z,97168.63
2022-08-05T17:22:24.832Z,97158.13
2022-08-05T17:24:57.852Z,97020.28
2022-08-05T17:27:33.618Z,97178.75
2022-08-05T17:30:04.119Z,97181.03
2022-08-05T17:32:35.262Z,97191.72
2022-08-05T17:35:04.163Z,97178.13
2022-08-05T17:37:41.532Z,97183.84
2022-08-05T17:40:16.032Z,97190.31
2022-08-05T17:42:50.987Z,97182.06
2022-08-05T17:45:22.125Z,97182.78
2022-08-05T17:47:55.801Z,97191.03
2022-08-05T17:50:28.459Z,97192.88
2022-08-05T17:53:00.544Z,97195.47
2022-08-05T17:55:37.686Z,97194.31
2022-08-05T17:58:09.616Z,97179.22
2022-08-05T18:00:44.636Z,97200.00
2022-08-05T18:06:11.947Z,97195.41
2022-08-05T18:08:46.103Z,97193.25
2022-08-05T18:11:23.934Z,97200.03
2022-08-05T18:14:03.184Z,97196.66
2022-08-05T18:16:32.850Z,97185.72
2022-08-05T18:19:02.654Z,97190.16
2022-08-05T18:22:07.229Z,97179.19
2022-08-05T18:24:19.179Z,97166.72
2022-08-05T18:26:49.442Z,97138.72
2022-08-05T18:29:17.725Z,97168.91
2022-08-05T18:32:06.620Z,97159.97
2022-08-05T18:34:43.011Z,97167.03
2022-08-05T18:37:12.711Z,97167.88
2022-08-05T18:40:31.228Z,97144.94
2022-08-05T18:42:48.340Z,97145.28
2022-08-05T18:45:16.735Z,97156.59
2022-08-05T18:47:48.969Z,97141.25
2022-08-05T18:50:44.838Z,97153.72
2022-08-05T18:53:22.941Z,97167.91
2022-08-05T18:55:53.382Z,97136.53
2022-08-05T18:58:28.546Z,97177.41
2022-08-05T19:00:57.549Z,97158.84
2022-08-05T19:03:53.469Z,97200.00
2022-08-05T19:06:22.175Z,97198.84
2022-08-05T19:09:03.423Z,97163.06
2022-08-05T19:11:37.058Z,97207.94
2022-08-05T19:14:52.440Z,97215.53
2022-08-05T19:17:11.888Z,97212.19
2022-08-05T19:19:46.508Z,97222.63
2022-08-05T19:22:17.703Z,97228.00
2022-08-05T19:24:56.127Z,97229.38
2022-08-05T19:27:30.266Z,97236.94
2022-08-05T19:29:59.481Z,97247.91
2022-08-05T19:32:28.330Z,97230.53
2022-08-05T19:34:57.897Z,97256.19
2022-08-05T19:37:35.065Z,97212.25
2022-08-05T19:40:18.638Z,97251.75
2022-08-05T19:43:04.953Z,97270.97
2022-08-05T19:45:36.855Z,97268.75
2022-08-05T19:48:06.680Z,97268.41
2022-08-05T19:50:37.044Z,97270.75
2022-08-05T19:53:09.590Z,97266.56
2022-08-05T19:56:15.202Z,97267.88
2022-08-05T19:58:30.088Z,97225.38
2022-08-05T20:00:58.976Z,97239.03
2022-08-05T20:03:36.319Z,97207.78
2022-08-05T20:06:15.598Z,97276.31
2022-08-05T20:08:52.833Z,97281.53
2022-08-05T20:11:23.069Z,97280.56
2022-08-05T20:13:59.148Z,97287.41
2022-08-05T20:16:42.007Z,97283.84
2022-08-05T20:19:12.067Z,97279.66
2022-08-05T20:21:43.466Z,97281.28
2022-08-05T20:24:14.858Z,97279.44
2022-08-05T20:26:44.418Z,97249.66
2022-08-05T20:29:26.893Z,97279.75
2022-08-05T20:31:58.336Z,97279.09
2022-08-05T20:34:28.165Z,97280.44
2022-08-05T20:36:56.410Z,97267.38
2022-08-05T20:39:26.065Z,97282.06
2022-08-05T20:42:05.293Z,97252.84
2022-08-05T20:44:37.721Z,97158.41
2022-08-05T20:47:07.794Z,97278.81
2022-08-05T20:49:39.564Z,97255.44
2022-08-05T20:52:10.673Z,97276.91
2022-08-05T20:54:43.092Z,97260.22
2022-08-05T20:57:43.256Z,97283.31
2022-08-05T21:00:40.042Z,97287.06
2022-08-05T21:03:06.157Z,97282.25
2022-08-05T21:05:48.293Z,97293.88
2022-08-05T21:08:26.623Z,97296.84
2022-08-05T21:11:10.035Z,97288.94
2022-08-05T21:13:48.318Z,97251.53
2022-08-05T21:16:29.497Z,97286.31
2022-08-05T21:18:59.829Z,97280.03
2022-08-05T21:21:43.933Z,97265.03
2022-08-05T21:24:15.216Z,97258.44
2022-08-05T21:26:50.558Z,97269.19
2022-08-05T21:29:26.483Z,97299.31
2022-08-05T21:31:59.767Z,97286.44
2022-08-05T21:34:28.928Z,97285.00
2022-08-05T21:37:00.074Z,97238.75
2022-08-05T21:39:28.405Z,97291.88
2022-08-05T21:42:01.491Z,97287.97
2022-08-05T21:44:30.994Z,97293.00
2022-08-05T21:47:00.066Z,97294.00
2022-08-05T21:49:48.050Z,97287.63
2022-08-05T21:52:26.910Z,97258.97
2022-08-05T21:54:56.569Z,97266.47
2022-08-05T21:57:33.724Z,97299.09
2022-08-05T22:00:05.313Z,97254.56
2022-08-05T22:02:35.808Z,97300.59
2022-08-05T22:05:05.386Z,97305.97
2022-08-05T22:07:40.410Z,97280.63
2022-08-05T22:10:26.643Z,97305.88
2022-08-05T22:12:58.707Z,97314.38
2022-08-05T22:16:00.780Z,97252.75
2022-08-05T22:18:16.412Z,97275.19
2022-08-05T22:20:48.114Z,97303.53
2022-08-05T22:24:01.693Z,97302.38
2022-08-05T22:26:40.527Z,97291.19
2022-08-05T22:29:10.294Z,97304.91
2022-08-05T22:31:44.545Z,97274.31
2022-08-05T22:34:25.425Z,97289.44
2022-08-05T22:36:56.786Z,97286.06
2022-08-05T22:39:31.137Z,97301.25
2022-08-05T22:42:10.198Z,97301.94
2022-08-05T22:44:48.302Z,97300.88
2022-08-05T22:47:28.972Z,97274.66
2022-08-05T22:50:19.259Z,97302.31
2022-08-05T22:52:49.463Z,97279.06
2022-08-05T22:55:21.100Z,97297.50
2022-08-05T22:57:51.054Z,97297.84
2022-08-05T23:00:22.215Z,97300.34
2022-08-05T23:02:52.310Z,97295.44
2022-08-05T23:05:22.010Z,97298.56
2022-08-05T23:07:51.187Z,97306.22
2022-08-05T23:10:20.927Z,97300.69
2022-08-05T23:12:54.917Z,97265.47
2022-08-05T23:15:29.543Z,97296.31
2022-08-05T23:18:03.577Z,97297.00
2022-08-05T23:20:37.275Z,97300.19
2022-08-05T23:23:08.380Z,97277.19
2022-08-05T23:25:52.053Z,97292.09
2022-08-05T23:28:24.113Z,97305.38
2022-08-05T23:31:15.638Z,97302.53
2022-08-05T23:34:04.445Z,97286.75
2022-08-05T23:36:39.857Z,97303.28
2022-08-05T23:39:17.233Z,97260.13
2022-08-05T23:42:01.902Z,97302.88
2022-08-05T23:44:32.254Z,97305.44
2022-08-05T23:47:14.545Z,97289.28
2022-08-05T23:49:45.821Z,97307.03
2022-08-05T23:52:30.729Z,97302.38
2022-08-05T23:55:02.212Z,97290.81
2022-08-05T23:57:33.758Z,97272.50
